createdAt,value
2022-09-21T00:01:25.288Z,13.60
2022-09-21T00:03:57.907Z,10.40
2022-09-21T00:06:26.652Z,9.90
2022-09-21T00:08:53.688Z,9.88
2022-09-21T00:11:25.007Z,9.77
2022-09-21T00:13:54.288Z,9.43
2022-09-21T00:16:22.095Z,12.23
2022-09-21T00:18:49.071Z,10.23
2022-09-21T00:21:17.094Z,13.77
2022-09-21T00:23:45.077Z,10.80
2022-09-21T00:26:16.136Z,12.70
2022-09-21T00:28:44.586Z,11.18
2022-09-21T00:31:14.445Z,11.93
2022-09-21T00:33:43.646Z,11.07
2022-09-21T00:36:13.770Z,10.80
2022-09-21T00:38:41.228Z,12.10
2022-09-21T00:41:09.913Z,12.63
2022-09-21T00:43:40.724Z,11.13
2022-09-21T00:46:20.315Z,9.25
2022-09-21T00:48:47.242Z,11.90
2022-09-21T00:51:14.795Z,12.55
2022-09-21T00:53:41.839Z,11.18
2022-09-21T00:56:11.130Z,12.30
2022-09-21T00:58:46.915Z,11.25
2022-09-21T01:01:16.663Z,14.80
2022-09-21T01:03:45.896Z,12.15
2022-09-21T01:06:15.002Z,11.77
2022-09-21T01:08:42.917Z,15.45
2022-09-21T01:11:26.270Z,9.90
2022-09-21T01:14:30.088Z,11.63
2022-09-21T01:17:09.329Z,8.52
2022-09-21T01:19:54.787Z,12.90
2022-09-21T01:22:36.951Z,11.55
2022-09-21T01:25:24.321Z,12.65
2022-09-21T01:27:57.464Z,11.85
2022-09-21T01:30:25.846Z,13.80
2022-09-21T01:33:03.333Z,17.58
2022-09-21T01:35:47.033Z,11.93
2022-09-21T01:38:41.052Z,17.27
2022-09-21T01:41:12.347Z,13.65
2022-09-21T01:44:10.658Z,13.57
2022-09-21T01:49:11.832Z,14.88
2022-09-21T01:51:44.252Z,16.25
2022-09-21T01:54:20.779Z,18.30
2022-09-21T01:57:01.621Z,17.13
2022-09-21T01:59:52.898Z,18.48
2022-09-21T02:02:41.740Z,16.38
2022-09-21T02:05:08.901Z,15.05
2022-09-21T02:07:37.703Z,16.08
2022-09-21T02:10:07.644Z,14.45
2022-09-21T02:12:34.646Z,15.25
2022-09-21T02:15:02.933Z,17.75
2022-09-21T02:17:44.084Z,18.63
2022-09-21T02:20:24.977Z,16.65
2022-09-21T02:23:10.106Z,15.40
2022-09-21T02:25:49.989Z,16.35
2022-09-21T02:28:26.741Z,16.25
2022-09-21T02:31:10.127Z,17.92
2022-09-21T02:33:45.851Z,16.63
2022-09-21T02:36:31.971Z,18.42
2022-09-21T02:39:16.099Z,15.07
2022-09-21T02:42:03.989Z,18.45
2022-09-21T02:44:42.610Z,17.50
2022-09-21T02:47:21.590Z,16.05
2022-09-21T02:49:53.487Z,18.52
2022-09-21T02:52:22.486Z,18.50
2022-09-21T02:54:52.456Z,15.20
2022-09-21T02:57:21.963Z,18.80
2022-09-21T02:59:50.667Z,16.02
2022-09-21T03:02:18.221Z,13.45
2022-09-21T03:04:47.791Z,18.05
2022-09-21T03:07:16.329Z,14.48
2022-09-21T03:09:43.622Z,19.25
2022-09-21T03:12:10.532Z,14.60
2022-09-21T03:14:37.638Z,18.20
2022-09-21T03:17:04.696Z,18.95
2022-09-21T03:19:31.593Z,15.45
2022-09-21T03:21:59.895Z,17.30
2022-09-21T03:24:45.524Z,14.43
2022-09-21T03:27:17.115Z,20.33
2022-09-21T03:29:44.437Z,17.08
2022-09-21T03:32:11.733Z,22.17
2022-09-21T03:34:38.690Z,21.08
2022-09-21T03:37:07.389Z,17.70
2022-09-21T03:39:35.093Z,18.90
2022-09-21T03:42:02.748Z,20.40
2022-09-21T03:44:29.813Z,19.42
2022-09-21T03:46:58.384Z,15.43
2022-09-21T03:49:26.210Z,19.48
2022-09-21T03:51:53.332Z,19.15
2022-09-21T03:54:20.603Z,17.63
2022-09-21T03:56:47.453Z,19.23
2022-09-21T03:59:14.572Z,20.77
2022-09-21T04:01:42.400Z,18.65
2022-09-21T04:04:10.415Z,19.85
2022-09-21T04:06:37.448Z,19.42
2022-09-21T04:09:04.595Z,24.65
2022-09-21T04:11:33.453Z,22.92
2022-09-21T04:14:00.577Z,22.13
2022-09-21T04:16:28.311Z,25.20
2022-09-21T04:18:55.298Z,23.63
2022-09-21T04:21:22.491Z,21.88
2022-09-21T04:23:50.047Z,18.17
2022-09-21T04:26:20.309Z,20.92
2022-09-21T04:28:47.264Z,23.20
2022-09-21T04:31:14.185Z,24.88
2022-09-21T04:33:41.731Z,18.98
2022-09-21T04:36:08.771Z,19.00
2022-09-21T04:38:35.674Z,17.48
2022-09-21T04:41:03.886Z,19.92
2022-09-21T04:43:30.855Z,18.38
2022-09-21T04:45:57.802Z,17.80
2022-09-21T04:48:24.949Z,17.10
2022-09-21T04:50:51.962Z,17.00
2022-09-21T04:53:19.117Z,16.70
2022-09-21T04:55:46.523Z,17.02
2022-09-21T04:58:13.600Z,14.98
2022-09-21T05:00:40.615Z,16.63
2022-09-21T05:03:07.518Z,15.35
2022-09-21T05:05:34.541Z,15.07
2022-09-21T05:08:01.729Z,18.83
2022-09-21T05:10:28.766Z,16.60
2022-09-21T05:12:55.795Z,19.38
2022-09-21T05:15:22.734Z,12.75
2022-09-21T05:17:49.793Z,15.77
2022-09-21T05:20:16.868Z,16.33
2022-09-21T05:22:43.889Z,17.85
2022-09-21T05:25:10.930Z,14.15
2022-09-21T05:27:37.823Z,14.38
2022-09-21T05:30:06.255Z,14.25
2022-09-21T05:32:44.056Z,16.80
2022-09-21T05:35:38.552Z,19.17
2022-09-21T05:38:08.476Z,17.30
2022-09-21T05:40:35.889Z,18.50
2022-09-21T05:43:03.324Z,16.88
2022-09-21T05:45:30.648Z,12.50
2022-09-21T05:48:00.491Z,17.63
2022-09-21T05:50:53.247Z,23.50
2022-09-21T05:53:37.371Z,28.05
2022-09-21T05:56:45.815Z,28.52
2022-09-21T05:59:41.447Z,19.77
2022-09-21T06:02:19.492Z,17.33
2022-09-21T06:04:47.613Z,19.83
2022-09-21T06:07:14.490Z,13.98
2022-09-21T06:09:43.319Z,14.05
2022-09-21T06:12:11.502Z,14.60
2022-09-21T06:14:38.619Z,12.73
2022-09-21T06:17:05.691Z,12.90
2022-09-21T06:19:32.789Z,11.32
2022-09-21T06:21:59.682Z,12.52
2022-09-21T06:24:26.602Z,10.45
2022-09-21T06:26:53.538Z,11.43
2022-09-21T06:29:23.735Z,13.32
2022-09-21T06:31:51.468Z,12.98
2022-09-21T06:34:18.626Z,11.43
2022-09-21T06:36:48.275Z,8.93
2022-09-21T06:39:15.237Z,12.38
2022-09-21T06:41:42.207Z,11.98
2022-09-21T06:44:10.553Z,8.13
2022-09-21T06:46:37.484Z,9.95
2022-09-21T06:49:04.450Z,10.18
2022-09-21T06:51:31.487Z,10.98
2022-09-21T06:53:59.144Z,7.50
2022-09-21T06:56:26.626Z,7.78
2022-09-21T06:58:53.662Z,12.00
2022-09-21T07:01:20.980Z,7.90
2022-09-21T07:03:52.139Z,9.82
2022-09-21T07:06:20.547Z,8.90
2022-09-21T07:11:35.983Z,9.13
2022-09-21T07:14:04.347Z,10.48
2022-09-21T07:16:31.367Z,12.10
2022-09-21T07:19:10.025Z,12.52
2022-09-21T07:21:37.590Z,14.75
2022-09-21T07:24:08.227Z,13.00
2022-09-21T07:26:38.052Z,9.68
2022-09-21T07:29:05.360Z,11.32
2022-09-21T07:31:32.372Z,14.98
2022-09-21T07:33:59.512Z,13.07
2022-09-21T07:36:26.688Z,12.15
2022-09-21T07:38:54.233Z,10.20
2022-09-21T07:41:21.597Z,11.45
2022-09-21T07:43:48.695Z,9.63
2022-09-21T07:46:16.315Z,11.50
2022-09-21T07:48:43.532Z,9.70
2022-09-21T07:51:13.487Z,12.95
2022-09-21T07:53:44.553Z,13.65
2022-09-21T07:56:14.547Z,10.48
2022-09-21T07:59:00.857Z,9.20
2022-09-21T08:01:29.121Z,9.70
2022-09-21T08:03:58.273Z,8.60
2022-09-21T08:06:27.602Z,10.02
2022-09-21T08:08:57.814Z,8.43
2022-09-21T08:11:27.588Z,8.07
2022-09-21T08:13:57.597Z,10.10
2022-09-21T08:16:25.637Z,10.57
2022-09-21T08:18:53.144Z,12.52
2022-09-21T08:21:20.663Z,11.38
2022-09-21T08:23:49.389Z,8.32
2022-09-21T08:26:19.586Z,11.13
2022-09-21T08:28:51.223Z,10.07
2022-09-21T08:31:21.162Z,8.38
2022-09-21T08:33:50.089Z,8.65
2022-09-21T08:36:18.112Z,7.88
2022-09-21T08:38:45.661Z,6.07
2022-09-21T08:41:17.637Z,6.93
2022-09-21T08:43:50.269Z,9.50
2022-09-21T08:46:20.312Z,7.43
2022-09-21T08:48:55.174Z,6.72
2022-09-21T08:51:26.867Z,7.95
2022-09-21T08:54:00.470Z,7.95
2022-09-21T08:56:41.872Z,8.23
2022-09-21T09:02:17.688Z,5.80
2022-09-21T09:05:10.810Z,6.90
2022-09-21T09:08:07.746Z,5.95
2022-09-21T09:10:56.456Z,8.00
2022-09-21T09:14:03.694Z,6.95
2022-09-21T09:17:12.861Z,7.05
2022-09-21T09:19:51.408Z,4.63
2022-09-21T09:22:28.809Z,5.22
2022-09-21T09:25:01.141Z,6.80
2022-09-21T09:27:35.315Z,5.82
2022-09-21T09:30:04.857Z,7.05
2022-09-21T09:32:55.517Z,4.18
2022-09-21T09:35:29.045Z,4.18
2022-09-21T09:38:16.430Z,8.05
2022-09-21T09:40:58.354Z,5.18
2022-09-21T09:43:25.193Z,4.10
2022-09-21T09:46:13.636Z,5.35
2022-09-21T09:49:40.006Z,4.40
2022-09-21T09:52:12.233Z,3.92
2022-09-21T09:54:41.411Z,4.22
2022-09-21T09:57:11.024Z,4.07
2022-09-21T09:59:44.683Z,3.90
2022-09-21T10:02:27.885Z,4.88
2022-09-21T10:05:06.595Z,5.75
2022-09-21T10:07:36.837Z,3.70
2022-09-21T10:10:24.030Z,4.72
2022-09-21T10:12:54.979Z,4.45
2022-09-21T10:15:24.874Z,5.13
2022-09-21T10:18:36.319Z,5.78
2022-09-21T10:21:08.111Z,3.42
2022-09-21T10:23:38.061Z,5.13
2022-09-21T10:26:11.021Z,4.63
2022-09-21T10:28:55.227Z,5.18
2022-09-21T10:31:27.743Z,4.65
2022-09-21T10:34:05.394Z,5.05
2022-09-21T10:36:35.305Z,3.78
2022-09-21T10:39:17.835Z,3.67
2022-09-21T10:42:01.887Z,3.65
2022-09-21T10:44:43.416Z,4.03
2022-09-21T10:47:37.373Z,4.78
2022-09-21T10:50:08.054Z,4.03
2022-09-21T10:52:39.776Z,6.68
2022-09-21T10:55:15.136Z,4.03
2022-09-21T10:57:44.547Z,4.63
2022-09-21T11:00:35.054Z,3.90
2022-09-21T11:03:26.829Z,3.50
2022-09-21T11:05:54.554Z,4.00
2022-09-21T11:08:32.336Z,4.80
2022-09-21T11:11:08.180Z,3.28
2022-09-21T11:13:42.476Z,3.45
2022-09-21T11:16:12.427Z,4.85
2022-09-21T11:19:10.244Z,8.75
2022-09-21T11:21:53.783Z,7.05
2022-09-21T11:24:25.227Z,4.68
2022-09-21T11:27:05.595Z,7.63
2022-09-21T11:29:42.542Z,5.85
2022-09-21T11:35:09.038Z,5.25
2022-09-21T11:37:54.909Z,4.88
2022-09-21T11:40:55.983Z,6.88
2022-09-21T11:43:35.688Z,6.28
2022-09-21T11:46:24.271Z,6.20
2022-09-21T11:49:27.943Z,8.05
2022-09-21T11:51:59.407Z,5.57
2022-09-21T11:54:27.328Z,5.15
2022-09-21T11:57:11.355Z,4.65
2022-09-21T11:59:54.253Z,5.68
2022-09-21T12:02:37.797Z,4.68
2022-09-21T12:05:34.758Z,8.00
2022-09-21T12:08:28.828Z,4.45
2022-09-21T12:11:08.145Z,6.57
2022-09-21T12:14:18.180Z,6.57
2022-09-21T12:16:50.248Z,6.13
2022-09-21T12:19:51.201Z,5.57
2022-09-21T12:22:29.128Z,5.90
2022-09-21T12:25:20.110Z,5.65
2022-09-21T12:27:52.527Z,6.13
2022-09-21T12:30:24.653Z,5.50
2022-09-21T12:33:09.574Z,4.28
2022-09-21T12:35:43.571Z,5.63
2022-09-21T12:38:20.123Z,6.15
2022-09-21T12:40:59.982Z,6.28
2022-09-21T12:43:31.180Z,4.28
2022-09-21T12:46:11.652Z,6.43
2022-09-21T12:48:40.363Z,4.95
2022-09-21T12:51:16.214Z,7.88
2022-09-21T12:53:50.891Z,5.95
2022-09-21T12:56:30.117Z,5.50
2022-09-21T12:59:34.692Z,6.63
2022-09-21T13:05:28.252Z,6.85
2022-09-21T13:08:04.687Z,7.50
2022-09-21T13:10:40.250Z,5.72
2022-09-21T13:13:18.327Z,6.32
2022-09-21T13:15:48.678Z,5.95
2022-09-21T13:18:25.449Z,5.97
2022-09-21T13:20:54.701Z,4.90
2022-09-21T13:23:42.487Z,5.50
2022-09-21T13:26:12.469Z,5.40
2022-09-21T13:29:04.603Z,7.03
2022-09-21T13:31:43.161Z,5.88
2022-09-21T13:34:15.990Z,5.03
2022-09-21T13:36:43.993Z,4.72
2022-09-21T13:39:18.055Z,6.85
2022-09-21T13:42:02.235Z,6.30
2022-09-21T13:44:44.227Z,5.13
2022-09-21T13:47:12.865Z,6.47
2022-09-21T13:49:47.031Z,6.40
2022-09-21T13:52:14.140Z,6.90
2022-09-21T13:54:58.671Z,5.95
2022-09-21T13:57:32.629Z,5.32
2022-09-21T14:00:12.578Z,5.07
2022-09-21T14:02:50.174Z,7.13
2022-09-21T14:05:42.276Z,5.70
2022-09-21T14:08:14.996Z,8.05
2022-09-21T14:11:02.233Z,5.65
2022-09-21T14:13:38.451Z,5.68
2022-09-21T14:16:47.750Z,4.05
2022-09-21T14:19:18.038Z,6.15
2022-09-21T14:22:04.055Z,5.65
2022-09-21T14:24:44.134Z,5.07
2022-09-21T14:27:36.993Z,5.47
2022-09-21T14:30:18.006Z,5.78
2022-09-21T14:33:01.376Z,5.47
2022-09-21T14:35:33.995Z,5.30
2022-09-21T14:38:05.630Z,7.40
2022-09-21T14:40:39.235Z,7.35
2022-09-21T14:43:15.774Z,5.25
2022-09-21T14:45:42.794Z,4.72
2022-09-21T14:48:22.326Z,7.07
2022-09-21T14:51:01.105Z,5.18
2022-09-21T14:53:39.612Z,5.25
2022-09-21T14:56:21.245Z,4.35
2022-09-21T14:58:58.055Z,6.05
2022-09-21T15:01:58.577Z,7.47
2022-09-21T15:05:01.061Z,7.05
2022-09-21T15:08:05.504Z,3.95
2022-09-21T15:10:56.044Z,5.07
2022-09-21T15:14:03.958Z,5.88
2022-09-21T15:16:44.314Z,6.07
2022-09-21T15:19:20.679Z,5.80
2022-09-21T15:21:49.022Z,4.82
2022-09-21T15:24:31.265Z,7.25
2022-09-21T15:27:12.889Z,6.88
2022-09-21T15:29:43.106Z,6.35
2022-09-21T15:32:10.129Z,10.05
2022-09-21T15:34:37.884Z,4.82
2022-09-21T15:37:17.617Z,7.15
2022-09-21T15:39:45.350Z,5.32
2022-09-21T15:42:23.154Z,6.13
2022-09-21T15:44:54.791Z,6.95
2022-09-21T15:47:26.386Z,8.05
2022-09-21T15:49:54.163Z,6.57
2022-09-21T15:52:30.082Z,7.15
2022-09-21T15:55:03.406Z,7.93
2022-09-21T15:57:40.750Z,7.63
2022-09-21T16:00:19.944Z,6.63
2022-09-21T16:03:08.001Z,7.30
2022-09-21T16:05:49.247Z,9.18
2022-09-21T16:08:37.427Z,6.47
2022-09-21T16:11:17.051Z,6.03
2022-09-21T16:14:04.924Z,9.10
2022-09-21T16:16:32.782Z,7.22
2022-09-21T16:19:00.350Z,6.00
2022-09-21T16:21:38.092Z,6.28
2022-09-21T16:24:27.235Z,8.35
2022-09-21T16:27:01.242Z,6.32
2022-09-21T16:29:39.434Z,7.35
2022-09-21T16:32:20.654Z,6.57
2022-09-21T16:34:53.384Z,7.05
2022-09-21T16:37:24.325Z,4.90
2022-09-21T16:39:56.371Z,6.40
2022-09-21T16:42:31.622Z,8.63
2022-09-21T16:44:59.759Z,8.30
2022-09-21T16:47:28.306Z,6.65
2022-09-21T16:50:04.303Z,6.57
2022-09-21T16:52:31.803Z,8.02
2022-09-21T16:54:59.253Z,5.97
2022-09-21T16:57:26.868Z,7.50
2022-09-21T16:59:55.136Z,6.22
2022-09-21T17:02:22.529Z,10.70
2022-09-21T17:04:49.888Z,6.53
2022-09-21T17:07:17.300Z,7.30
2022-09-21T17:09:47.978Z,8.50
2022-09-21T17:12:18.055Z,6.90
2022-09-21T17:14:47.385Z,7.20
2022-09-21T17:17:22.885Z,7.60
2022-09-21T17:19:52.758Z,5.57
2022-09-21T17:22:20.143Z,8.57
2022-09-21T17:24:55.180Z,4.60
2022-09-21T17:27:29.624Z,4.22
2022-09-21T17:29:57.381Z,5.30
2022-09-21T17:32:25.508Z,4.88
2022-09-21T17:35:01.877Z,3.88
2022-09-21T17:37:30.056Z,3.92
2022-09-21T17:39:57.768Z,3.92
2022-09-21T17:42:26.071Z,4.32
2022-09-21T17:45:07.020Z,5.00
2022-09-21T17:47:35.362Z,3.90
2022-09-21T17:50:15.104Z,5.25
2022-09-21T17:53:02.587Z,5.13
2022-09-21T17:55:31.095Z,5.30
2022-09-21T17:58:14.766Z,4.20
2022-09-21T18:00:57.886Z,4.85
2022-09-21T18:03:28.279Z,3.78
2022-09-21T18:06:01.050Z,3.72
2022-09-21T18:08:36.279Z,4.30
2022-09-21T18:11:25.211Z,4.32
2022-09-21T18:14:10.822Z,6.32
2022-09-21T18:16:51.776Z,6.80
2022-09-21T18:19:44.021Z,7.38
2022-09-21T18:22:43.692Z,6.47
2022-09-21T18:25:27.099Z,6.20
2022-09-21T18:27:57.938Z,7.00
2022-09-21T18:30:26.716Z,6.07
2022-09-21T18:33:09.867Z,7.82
2022-09-21T18:35:59.239Z,7.75
2022-09-21T18:38:41.058Z,8.38
2022-09-21T18:41:14.114Z,7.53
2022-09-21T18:44:11.582Z,9.65
2022-09-21T18:46:57.753Z,7.40
2022-09-21T18:49:43.399Z,7.15
2022-09-21T18:52:31.091Z,9.02
2022-09-21T18:54:58.453Z,7.82
2022-09-21T18:57:25.849Z,9.20
2022-09-21T18:59:53.410Z,8.60
2022-09-21T19:02:21.091Z,9.70
2022-09-21T19:04:49.543Z,12.95
2022-09-21T19:07:44.894Z,10.73
2022-09-21T19:10:25.872Z,12.38
2022-09-21T19:13:11.764Z,10.45
2022-09-21T19:16:00.226Z,10.82
2022-09-21T19:18:52.752Z,13.02
2022-09-21T19:22:11.978Z,10.23
2022-09-21T19:24:45.755Z,11.98
2022-09-21T19:27:25.998Z,11.63
2022-09-21T19:30:01.984Z,13.10
2022-09-21T19:32:42.428Z,12.20
2022-09-21T19:35:30.300Z,10.48
2022-09-21T19:38:02.459Z,9.45
2022-09-21T19:40:33.146Z,9.82
2022-09-21T19:43:06.358Z,9.05
2022-09-21T19:45:36.157Z,8.93
2022-09-21T19:48:09.018Z,7.43
2022-09-21T19:50:50.130Z,9.02
2022-09-21T19:53:35.629Z,6.97
2022-09-21T19:56:21.520Z,9.93
2022-09-21T19:59:07.417Z,8.98
2022-09-21T20:01:42.829Z,9.10
2022-09-21T20:04:16.182Z,8.07
2022-09-21T20:06:50.167Z,7.75
2022-09-21T20:09:36.905Z,7.78
2022-09-21T20:12:27.299Z,7.00
2022-09-21T20:15:29.566Z,6.43
2022-09-21T20:18:30.687Z,7.90
2022-09-21T20:20:57.930Z,7.60
2022-09-21T20:23:25.239Z,6.60
2022-09-21T20:26:06.069Z,9.63
2022-09-21T20:28:33.357Z,7.47
2022-09-21T20:31:00.741Z,7.45
2022-09-21T20:33:31.563Z,7.60
2022-09-21T20:35:59.072Z,7.68
2022-09-21T20:38:26.233Z,7.82
2022-09-21T20:40:54.231Z,6.57
2022-09-21T20:43:23.257Z,7.55
2022-09-21T20:45:50.469Z,6.78
2022-09-21T20:48:17.647Z,6.75
2022-09-21T20:50:49.239Z,6.38
2022-09-21T20:53:17.081Z,8.55
2022-09-21T20:55:56.815Z,9.57
2022-09-21T20:58:25.096Z,8.88
2022-09-21T21:00:56.455Z,9.27
2022-09-21T21:03:25.691Z,8.23
2022-09-21T21:05:52.877Z,7.10
2022-09-21T21:08:19.936Z,9.65
2022-09-21T21:10:46.996Z,7.45
2022-09-21T21:13:14.250Z,10.43
2022-09-21T21:15:41.391Z,9.20
2022-09-21T21:18:12.506Z,8.32
2022-09-21T21:20:41.184Z,6.40
2022-09-21T21:23:08.478Z,7.20
2022-09-21T21:25:36.033Z,8.07
2022-09-21T21:28:03.665Z,7.63
2022-09-21T21:30:31.667Z,7.13
2022-09-21T21:32:58.700Z,8.00
2022-09-21T21:35:26.050Z,8.52
2022-09-21T21:37:53.128Z,6.97
2022-09-21T21:40:20.911Z,8.10
2022-09-21T21:42:48.021Z,7.93
2022-09-21T21:45:15.128Z,6.97
2022-09-21T21:47:42.109Z,6.93
2022-09-21T21:50:10.459Z,6.40
2022-09-21T21:52:37.758Z,6.72
2022-09-21T21:55:05.763Z,6.90
2022-09-21T21:57:32.759Z,7.20
2022-09-21T22:00:00.141Z,8.27
2022-09-21T22:02:28.517Z,7.72
2022-09-21T22:04:55.599Z,9.23
2022-09-21T22:07:22.683Z,7.38
2022-09-21T22:09:49.998Z,9.55
2022-09-21T22:12:17.133Z,7.00
2022-09-21T22:14:46.551Z,7.38
2022-09-21T22:17:14.592Z,7.97
2022-09-21T22:19:42.520Z,5.95
2022-09-21T22:22:09.519Z,6.10
2022-09-21T22:24:36.674Z,7.95
2022-09-21T22:27:03.747Z,5.78
2022-09-21T22:29:30.745Z,7.05
2022-09-21T22:31:57.928Z,6.15
2022-09-21T22:34:24.928Z,7.22
2022-09-21T22:36:52.034Z,6.32
2022-09-21T22:39:19.012Z,5.97
2022-09-21T22:41:46.086Z,6.22
2022-09-21T22:44:13.072Z,6.00
2022-09-21T22:46:40.503Z,7.53
2022-09-21T22:49:07.846Z,7.25
2022-09-21T22:51:35.411Z,8.77
2022-09-21T22:54:02.393Z,5.82
2022-09-21T22:56:31.654Z,7.03
2022-09-21T22:59:00.517Z,6.45
2022-09-21T23:01:34.264Z,7.55
2022-09-21T23:04:12.907Z,6.70
2022-09-21T23:06:42.935Z,7.18
2022-09-21T23:09:14.878Z,5.57
2022-09-21T23:11:43.729Z,4.95
2022-09-21T23:14:12.649Z,5.97
2022-09-21T23:16:39.853Z,5.57
2022-09-21T23:19:15.399Z,6.25
2022-09-21T23:21:49.879Z,4.60
2022-09-21T23:24:18.049Z,5.10
2022-09-21T23:26:46.016Z,5.60
2022-09-21T23:29:15.376Z,5.78
2022-09-21T23:31:45.517Z,5.55
2022-09-21T23:34:13.545Z,5.53
2022-09-21T23:36:41.800Z,6.32
2022-09-21T23:39:11.874Z,6.05
2022-09-21T23:41:39.272Z,6.45
2022-09-21T23:44:07.000Z,6.60
2022-09-21T23:46:36.740Z,7.32
2022-09-21T23:49:03.830Z,7.10
2022-09-21T23:51:30.876Z,11.43
2022-09-21T23:53:58.772Z,10.07
2022-09-21T23:56:26.295Z,8.73
2022-09-21T23:58:53.181Z,9.52
